Time;durP1;ratioP1;P1;durP2;ratioP2;P2;SDS_P1;SDS_P2;PMS_P1;PMS_P2;Temp;Humidity;BMP_temperature;BMP_pressure;BME280_temperature;BME280_humidity;BME280_pressure;Samples;Min_cycle;Max_cycle;Signal;HPM_P1;HPM_P2
2021/03/30 00:01:52;;;;;;;8.37;3.80;;;7.70;99.90;;;;;;5145230;27;20479;-70
2021/03/30 00:04:37;;;;;;;5.53;3.77;;;7.70;99.90;;;;;;5135281;27;20448;-69
2021/03/30 00:07:22;;;;;;;9.03;3.90;;;7.80;99.90;;;;;;5142207;27;20552;-69
2021/03/30 00:10:10;;;;;;;7.40;3.67;;;7.90;99.90;;;;;;5140192;27;20438;-70
2021/03/30 00:12:55;;;;;;;6.70;3.90;;;7.90;99.90;;;;;;5142145;27;20483;-71
2021/03/30 00:15:40;;;;;;;6.50;4.20;;;7.80;99.90;;;;;;5134010;27;20435;-70
2021/03/30 00:18:26;;;;;;;8.93;4.20;;;7.70;99.90;;;;;;5143024;27;20442;-71
2021/03/30 00:21:11;;;;;;;7.20;3.73;;;7.50;99.90;;;;;;5143265;27;20544;-70
2021/03/30 00:23:57;;;;;;;7.90;4.10;;;7.40;99.90;;;;;;5138455;27;20452;-69
2021/03/30 00:26:42;;;;;;;15.43;4.70;;;7.40;99.90;;;;;;5140011;27;20414;-71
2021/03/30 00:29:27;;;;;;;11.07;4.70;;;7.50;99.90;;;;;;5142850;27;20462;-69
2021/03/30 00:32:12;;;;;;;7.17;4.13;;;7.50;99.90;;;;;;5143388;27;20437;-71
2021/03/30 00:34:58;;;;;;;5.70;4.00;;;7.50;99.90;;;;;;5140511;27;20446;-69
2021/03/30 00:37:43;;;;;;;9.97;3.77;;;7.40;99.90;;;;;;5135877;27;20452;-72
2021/03/30 00:40:29;;;;;;;7.73;3.70;;;7.20;99.90;;;;;;5135112;27;20577;-70
2021/03/30 00:43:14;;;;;;;8.50;3.63;;;7.10;99.90;;;;;;5143679;27;20487;-71
2021/03/30 00:45:59;;;;;;;8.93;4.40;;;7.10;99.90;;;;;;5139120;27;20447;-69
2021/03/30 00:48:48;;;;;;;10.43;5.10;;;7.20;99.90;;;;;;5138826;27;20425;-71
2021/03/30 00:51:33;;;;;;;5.93;3.40;;;7.10;99.90;;;;;;5142344;27;20514;-71
2021/03/30 00:54:19;;;;;;;8.00;3.90;;;7.00;99.90;;;;;;5133911;27;20443;-69
2021/03/30 00:57:05;;;;;;;11.30;3.87;;;6.90;99.90;;;;;;5144200;27;20961;-71
2021/03/30 00:59:50;;;;;;;5.60;4.10;;;6.70;99.90;;;;;;5140396;27;20478;-71
2021/03/30 01:02:36;;;;;;;8.17;3.77;;;6.80;99.90;;;;;;5142885;27;20466;-71
2021/03/30 01:05:21;;;;;;;7.87;4.17;;;6.90;99.90;;;;;;5140746;27;20454;-69
2021/03/30 01:08:23;;;;;;;11.00;4.83;;;7.10;99.90;;;;;;5136669;27;20504;-69
2021/03/30 01:11:22;;;;;;;6.97;4.73;;;7.30;99.90;;;;;;5133958;27;20505;-70
2021/03/30 01:14:26;;;;;;;9.33;5.07;;;7.40;99.90;;;;;;5136245;27;20972;-71
2021/03/30 01:17:23;;;;;;;8.53;4.40;;;7.20;99.90;;;;;;5139596;27;20473;-70
2021/03/30 01:20:49;;;;;;;10.20;4.57;;;7.10;99.90;;;;;;5148564;27;20566;-69
2021/03/30 01:23:49;;;;;;;6.53;4.37;;;6.90;99.90;;;;;;5145682;27;20439;-72
2021/03/30 01:26:58;;;;;;;8.10;3.70;;;6.80;99.90;;;;;;5142336;27;20466;-70
2021/03/30 01:29:49;;;;;;;5.97;4.30;;;6.80;99.90;;;;;;5145003;27;20540;-70
2021/03/30 01:32:37;;;;;;;6.57;3.80;;;7.00;99.90;;;;;;5145067;27;20456;-70
2021/03/30 01:35:25;;;;;;;10.77;4.60;;;7.00;99.90;;;;;;5148872;27;21000;-72
2021/03/30 01:38:13;;;;;;;12.10;4.80;;;7.00;99.90;;;;;;5148633;27;20503;-70
2021/03/30 01:40:59;;;;;;;7.10;4.47;;;6.90;99.90;;;;;;5142722;27;20512;-70
2021/03/30 01:43:48;;;;;;;7.67;3.53;;;6.90;99.90;;;;;;5145181;27;20531;-72
2021/03/30 01:46:34;;;;;;;7.33;4.03;;;6.80;99.90;;;;;;5141690;27;20451;-70
2021/03/30 01:49:21;;;;;;;28.10;6.27;;;6.70;99.90;;;;;;5141108;27;20426;-70
2021/03/30 01:52:10;;;;;;;8.20;4.00;;;6.80;99.90;;;;;;5143240;27;20463;-71
2021/03/30 01:54:56;;;;;;;5.87;4.10;;;6.80;99.90;;;;;;5138053;27;20455;-69
2021/03/30 01:57:44;;;;;;;8.30;4.30;;;6.70;99.90;;;;;;5146896;27;20451;-70
2021/03/30 02:00:33;;;;;;;6.27;3.70;;;6.60;99.90;;;;;;5143513;27;20509;-70
2021/03/30 02:03:21;;;;;;;8.27;3.90;;;6.50;99.90;;;;;;5139803;27;20496;-69
2021/03/30 02:06:07;;;;;;;6.23;3.73;;;6.40;99.90;;;;;;5135567;27;20848;-69
2021/03/30 02:08:56;;;;;;;8.47;4.33;;;6.40;99.90;;;;;;5149246;27;20507;-70
2021/03/30 02:11:45;;;;;;;8.20;4.83;;;6.60;99.90;;;;;;5146706;27;20483;-71
2021/03/30 02:14:30;;;;;;;9.90;4.13;;;6.70;99.90;;;;;;5142536;27;20448;-70
2021/03/30 02:17:23;;;;;;;4.80;3.07;;;6.60;99.90;;;;;;5140115;27;20439;-70
2021/03/30 02:20:17;;;;;;;6.60;3.70;;;6.60;99.90;;;;;;5142690;27;20513;-70
2021/03/30 02:23:05;;;;;;;5.93;3.43;;;6.30;99.90;;;;;;5138662;27;20476;-70
2021/03/30 02:25:54;;;;;;;8.17;3.53;;;6.30;99.90;;;;;;5148520;27;20454;-69
2021/03/30 02:28:44;;;;;;;6.60;3.50;;;6.30;99.90;;;;;;5146219;27;20806;-69
2021/03/30 02:31:32;;;;;;;7.97;4.27;;;6.50;99.90;;;;;;5141790;27;20474;-69
2021/03/30 02:34:19;;;;;;;6.47;4.30;;;6.60;99.90;;;;;;5139042;27;20439;-72
2021/03/30 02:37:06;;;;;;;8.30;4.03;;;6.60;99.90;;;;;;5140796;27;20469;-72
2021/03/30 02:39:52;;;;;;;5.90;3.97;;;6.40;99.90;;;;;;5141775;27;20425;-71
2021/03/30 02:42:40;;;;;;;7.60;4.40;;;6.30;99.90;;;;;;5147433;27;20986;-70
2021/03/30 02:45:26;;;;;;;7.43;3.87;;;6.40;99.90;;;;;;5137718;27;20501;-70
2021/03/30 02:48:12;;;;;;;10.07;5.30;;;6.40;99.90;;;;;;5140780;27;20479;-70
2021/03/30 02:50:58;;;;;;;9.03;4.53;;;6.30;99.90;;;;;;5141059;27;21063;-70
2021/03/30 02:53:45;;;;;;;9.43;4.57;;;6.20;99.90;;;;;;5141607;27;20542;-70
2021/03/30 02:56:31;;;;;;;9.90;4.77;;;6.10;99.90;;;;;;5146439;27;20868;-73
2021/03/30 02:59:19;;;;;;;7.67;4.10;;;6.00;99.90;;;;;;5148067;27;20442;-70
2021/03/30 03:02:05;;;;;;;5.73;3.70;;;5.90;99.90;;;;;;5139201;27;20451;-70
2021/03/30 03:04:50;;;;;;;11.93;4.77;;;5.90;99.90;;;;;;5138125;27;20435;-71
2021/03/30 03:07:38;;;;;;;12.73;4.27;;;5.90;99.90;;;;;;5144548;27;20485;-72
2021/03/30 03:10:24;;;;;;;9.20;4.20;;;5.80;99.90;;;;;;5148056;27;20653;-72
2021/03/30 03:13:12;;;;;;;8.07;4.70;;;5.80;99.90;;;;;;5146754;27;20486;-72
2021/03/30 03:15:57;;;;;;;8.27;4.43;;;5.70;99.90;;;;;;5135391;27;20523;-71
2021/03/30 03:18:42;;;;;;;7.57;5.10;;;5.60;99.90;;;;;;5147094;27;20450;-71
2021/03/30 03:21:29;;;;;;;6.30;4.53;;;5.40;99.90;;;;;;5143693;27;20455;-72
2021/03/30 03:24:14;;;;;;;10.37;5.00;;;5.50;99.90;;;;;;5138510;27;21005;-71
2021/03/30 03:27:03;;;;;;;7.93;4.60;;;5.70;99.90;;;;;;5140445;27;20873;-70
2021/03/30 03:29:48;;;;;;;7.23;4.03;;;5.90;99.90;;;;;;5140586;27;20983;-71
2021/03/30 03:32:34;;;;;;;7.10;4.77;;;6.00;99.90;;;;;;5144850;27;20486;-71
2021/03/30 03:35:19;;;;;;;8.80;4.20;;;6.00;99.90;;;;;;5142435;27;20435;-72
2021/03/30 03:38:05;;;;;;;8.33;4.90;;;6.10;99.90;;;;;;5136990;27;20467;-71
2021/03/30 03:40:50;;;;;;;5.70;4.10;;;6.00;99.90;;;;;;5141501;27;20886;-71
2021/03/30 03:43:37;;;;;;;7.57;4.40;;;5.90;99.90;;;;;;5144138;27;20504;-70
2021/03/30 03:46:22;;;;;;;6.27;4.37;;;5.70;99.90;;;;;;5143041;27;20548;-70
2021/03/30 03:49:07;;;;;;;9.50;5.23;;;5.80;99.90;;;;;;5134316;27;20442;-71
2021/03/30 03:51:58;;;;;;;7.93;4.90;;;5.70;99.90;;;;;;5146484;27;20520;-71
2021/03/30 03:54:44;;;;;;;7.00;5.03;;;5.70;99.90;;;;;;5139081;27;20536;-70
2021/03/30 03:57:35;;;;;;;11.67;5.17;;;5.60;99.90;;;;;;5143719;27;20970;-70
2021/03/30 04:00:23;;;;;;;9.17;5.73;;;5.50;99.90;;;;;;5142357;27;20489;-71
2021/03/30 04:03:14;;;;;;;9.63;5.30;;;5.50;99.90;;;;;;5136197;27;20649;-70
2021/03/30 04:06:08;;;;;;;10.73;4.33;;;5.40;99.90;;;;;;5138489;27;20552;-71
2021/03/30 04:08:56;;;;;;;8.97;5.80;;;5.50;99.90;;;;;;5146481;27;20611;-70
2021/03/30 04:11:41;;;;;;;9.03;4.60;;;5.60;99.90;;;;;;5141602;27;20523;-70
2021/03/30 04:14:28;;;;;;;10.60;5.10;;;5.70;99.90;;;;;;5143499;27;20544;-71
2021/03/30 04:17:15;;;;;;;9.32;4.85;;;5.90;99.90;;;;;;5134249;27;20451;-71
2021/03/30 04:20:09;;;;;;;5.63;4.10;;;5.80;99.90;;;;;;5136962;27;20670;-70
2021/03/30 04:22:56;;;;;;;8.10;5.10;;;5.70;99.90;;;;;;5136583;27;20506;-71
2021/03/30 04:25:41;;;;;;;7.60;5.00;;;5.70;99.90;;;;;;5136161;27;20483;-71
2021/03/30 04:28:26;;;;;;;7.40;4.50;;;5.70;99.90;;;;;;5134308;27;20972;-72
2021/03/30 04:31:11;;;;;;;7.77;4.67;;;5.80;99.90;;;;;;5138637;27;20250;-71
2021/03/30 04:33:57;;;;;;;8.03;5.10;;;5.90;99.90;;;;;;5136963;27;20920;-71
2021/03/30 04:36:42;;;;;;;7.50;4.60;;;5.90;99.90;;;;;;5144221;27;21019;-72
2021/03/30 04:39:27;;;;;;;8.00;4.50;;;5.90;99.90;;;;;;5135508;27;20413;-71
2021/03/30 04:42:12;;;;;;;9.80;5.57;;;5.60;99.90;;;;;;5144029;27;20422;-71
2021/03/30 04:44:57;;;;;;;8.40;4.90;;;5.50;99.90;;;;;;5138320;27;20447;-72
2021/03/30 04:47:42;;;;;;;8.27;4.90;;;5.20;99.90;;;;;;5135101;27;20990;-71
2021/03/30 04:50:29;;;;;;;6.73;4.43;;;5.10;99.90;;;;;;5135069;27;20499;-71
2021/03/30 04:53:13;;;;;;;7.73;5.50;;;4.80;99.90;;;;;;5142325;27;20549;-71
2021/03/30 04:55:58;;;;;;;11.77;5.33;;;4.80;99.90;;;;;;5140393;27;20532;-70
2021/03/30 04:58:43;;;;;;;8.47;5.03;;;4.80;99.90;;;;;;5148257;27;20512;-71
2021/03/30 05:01:29;;;;;;;9.37;6.30;;;4.90;99.90;;;;;;5142646;27;20459;-71
2021/03/30 05:04:14;;;;;;;7.60;5.73;;;5.10;99.90;;;;;;5144593;27;20447;-72
2021/03/30 05:07:00;;;;;;;9.67;4.90;;;5.30;99.90;;;;;;5147008;27;20447;-71
2021/03/30 05:09:45;;;;;;;6.97;4.23;;;5.30;99.90;;;;;;5148188;27;20458;-70
2021/03/30 05:12:30;;;;;;;6.10;4.80;;;5.30;99.90;;;;;;5147763;27;20613;-70
2021/03/30 05:15:15;;;;;;;6.70;5.00;;;5.10;99.90;;;;;;5142119;27;20564;-71
2021/03/30 05:18:00;;;;;;;10.37;4.70;;;5.00;99.90;;;;;;5143806;27;20455;-72
2021/03/30 05:20:46;;;;;;;12.53;5.13;;;4.90;99.90;;;;;;5147326;27;20477;-71
2021/03/30 05:23:32;;;;;;;7.93;5.07;;;4.90;99.90;;;;;;5137401;27;20475;-71
2021/03/30 05:26:17;;;;;;;6.23;4.67;;;4.90;99.90;;;;;;5138016;27;20482;-72
2021/03/30 05:29:03;;;;;;;6.57;4.87;;;5.10;99.90;;;;;;5144997;27;20482;-71
2021/03/30 05:31:48;;;;;;;12.70;5.40;;;5.30;99.90;;;;;;5145461;27;21080;-72
2021/03/30 05:34:33;;;;;;;15.00;4.50;;;5.40;99.90;;;;;;5142144;27;20995;-71
2021/03/30 05:37:18;;;;;;;7.73;5.20;;;5.20;99.90;;;;;;5137540;27;20960;-70
2021/03/30 05:40:07;;;;;;;15.52;4.72;;;5.40;99.90;;;;;;5136497;27;20450;-70
2021/03/30 05:42:53;;;;;;;6.60;4.33;;;5.50;99.90;;;;;;5143688;27;20755;-70
2021/03/30 05:45:39;;;;;;;10.00;4.40;;;5.60;99.90;;;;;;5143085;27;20440;-72
2021/03/30 05:48:25;;;;;;;7.97;4.37;;;5.70;99.90;;;;;;5142002;27;21013;-70
2021/03/30 05:51:13;;;;;;;7.07;4.70;;;5.80;99.90;;;;;;5141664;27;20582;-71
2021/03/30 05:53:59;;;;;;;9.47;5.33;;;5.90;99.90;;;;;;5135682;27;20495;-71
2021/03/30 05:56:46;;;;;;;11.23;4.60;;;6.00;99.90;;;;;;5142812;27;20451;-71
2021/03/30 05:59:34;;;;;;;8.03;4.60;;;6.20;99.90;;;;;;5145848;27;20439;-71
2021/03/30 06:02:22;;;;;;;13.67;4.30;;;6.30;99.90;;;;;;5142998;27;20459;-72
2021/03/30 06:05:08;;;;;;;6.37;4.77;;;6.30;99.90;;;;;;5142047;27;20438;-71
2021/03/30 06:07:54;;;;;;;8.43;4.53;;;6.40;99.90;;;;;;5137131;27;20463;-71
2021/03/30 06:10:39;;;;;;;10.90;5.00;;;6.50;99.90;;;;;;5145517;27;20512;-71
2021/03/30 06:13:45;;;;;;;11.87;4.73;;;6.50;99.90;;;;;;5145614;27;20459;-72
2021/03/30 06:16:33;;;;;;;8.30;4.70;;;6.60;99.90;;;;;;5144467;27;20436;-71
2021/03/30 06:19:20;;;;;;;9.07;4.90;;;6.70;99.90;;;;;;5143476;27;20992;-71
2021/03/30 06:22:06;;;;;;;7.20;4.90;;;6.80;99.90;;;;;;5139740;27;20455;-71
2021/03/30 06:24:52;;;;;;;10.07;5.30;;;6.80;99.90;;;;;;5145974;27;20490;-71
2021/03/30 06:27:37;;;;;;;14.70;5.53;;;6.80;99.90;;;;;;5147568;27;20439;-71
2021/03/30 06:30:29;;;;;;;20.33;5.80;;;6.90;99.90;;;;;;5144683;27;20548;-73
2021/03/30 06:33:19;;;;;;;19.93;6.70;;;6.90;99.90;;;;;;5139776;27;20876;-71
2021/03/30 06:36:19;;;;;;;10.03;5.13;;;7.00;99.90;;;;;;5137046;27;20442;-71
2021/03/30 06:39:07;;;;;;;15.60;6.50;;;7.10;99.90;;;;;;5143542;27;20533;-71
2021/03/30 06:41:56;;;;;;;11.97;6.20;;;7.10;99.90;;;;;;5146979;27;20505;-71
2021/03/30 06:44:41;;;;;;;16.57;7.10;;;7.20;99.90;;;;;;5142866;27;21022;-71
2021/03/30 06:47:28;;;;;;;11.00;5.87;;;7.40;99.90;;;;;;5139973;27;21010;-71
2021/03/30 06:50:25;;;;;;;14.40;7.10;;;7.50;99.90;;;;;;5145706;27;20448;-71
2021/03/30 06:53:12;;;;;;;15.67;6.93;;;7.60;99.90;;;;;;5148996;27;20818;-71
2021/03/30 06:55:57;;;;;;;10.83;6.53;;;7.80;99.90;;;;;;5142156;27;20802;-71
2021/03/30 06:58:56;;;;;;;14.23;7.53;;;7.90;99.90;;;;;;5145713;27;20485;-72
2021/03/30 07:01:43;;;;;;;16.77;7.27;;;8.00;99.90;;;;;;5146941;27;20512;-71
2021/03/30 07:04:29;;;;;;;12.90;6.90;;;8.10;99.90;;;;;;5139885;27;20509;-71
2021/03/30 07:07:16;;;;;;;17.53;8.30;;;8.20;99.90;;;;;;5148730;27;20480;-72
2021/03/30 07:10:01;;;;;;;17.27;6.50;;;8.40;99.90;;;;;;5143038;27;20947;-71
2021/03/30 07:12:48;;;;;;;15.93;7.03;;;8.60;99.90;;;;;;5146433;27;20488;-71
2021/03/30 07:15:34;;;;;;;14.10;7.83;;;8.70;99.90;;;;;;5149890;27;20443;-71
2021/03/30 07:18:27;;;;;;;13.03;6.50;;;8.90;99.90;;;;;;5145694;27;20505;-71
2021/03/30 07:21:19;;;;;;;13.93;6.73;;;9.00;99.90;;;;;;5144092;27;20448;-72
2021/03/30 07:24:08;;;;;;;9.97;6.50;;;9.20;99.90;;;;;;5136309;27;20507;-72
2021/03/30 07:26:59;;;;;;;17.73;7.80;;;9.40;99.90;;;;;;5142763;27;20529;-71
2021/03/30 07:29:47;;;;;;;13.87;6.10;;;9.60;99.90;;;;;;5139269;27;20868;-71
2021/03/30 07:32:41;;;;;;;13.30;5.37;;;9.80;99.90;;;;;;5144703;27;20616;-72
2021/03/30 07:35:28;;;;;;;8.77;5.20;;;10.00;99.90;;;;;;5142799;27;20511;-71
2021/03/30 07:38:19;;;;;;;16.40;6.23;;;10.20;99.90;;;;;;5141266;27;20422;-71
2021/03/30 07:41:04;;;;;;;10.73;5.30;;;10.40;99.90;;;;;;5133476;27;20439;-71
2021/03/30 07:43:51;;;;;;;9.37;5.37;;;10.50;99.90;;;;;;5145166;27;20555;-72
2021/03/30 07:46:37;;;;;;;8.27;5.03;;;10.70;99.90;;;;;;5140543;27;20443;-71
2021/03/30 07:49:25;;;;;;;12.47;4.90;;;10.80;99.90;;;;;;5141188;27;20413;-71
2021/03/30 07:52:21;;;;;;;12.13;5.00;;;11.00;99.90;;;;;;5142761;27;20507;-72
2021/03/30 07:55:25;;;;;;;13.53;4.87;;;11.10;99.90;;;;;;5144902;27;20443;-71
2021/03/30 07:58:11;;;;;;;7.70;4.40;;;11.30;99.90;;;;;;5144259;27;20805;-71
2021/03/30 08:00:56;;;;;;;14.57;4.90;;;11.50;99.90;;;;;;5147130;27;20435;-71
2021/03/30 08:03:45;;;;;;;11.27;4.80;;;11.60;99.00;;;;;;5136825;27;20451;-72
2021/03/30 08:06:31;;;;;;;10.60;5.37;;;11.70;98.30;;;;;;5134939;27;20832;-71
2021/03/30 08:09:19;;;;;;;17.10;5.70;;;11.90;98.00;;;;;;5144484;27;20483;-72
2021/03/30 08:12:20;;;;;;;6.80;4.63;;;12.00;96.90;;;;;;5138889;27;20446;-72
2021/03/30 08:15:06;;;;;;;14.13;5.00;;;12.30;97.30;;;;;;5148244;27;20960;-72
2021/03/30 08:17:56;;;;;;;12.27;5.80;;;12.40;96.70;;;;;;5148168;27;20413;-72
2021/03/30 08:20:59;;;;;;;8.10;4.07;;;12.60;95.20;;;;;;5136692;27;20507;-71
2021/03/30 08:24:06;;;;;;;7.70;3.83;;;12.80;91.20;;;;;;5134229;27;20446;-72
2021/03/30 08:26:51;;;;;;;9.73;3.83;;;13.00;93.20;;;;;;5142395;27;20493;-72
2021/03/30 08:29:37;;;;;;;9.97;4.40;;;13.30;92.30;;;;;;5134438;27;20807;-73
2021/03/30 08:32:23;;;;;;;8.10;4.13;;;13.50;90.80;;;;;;5135164;27;20576;-72
2021/03/30 08:35:12;;;;;;;9.83;3.50;;;13.80;84.50;;;;;;5132896;27;20422;-72
2021/03/30 08:37:58;;;;;;;11.73;4.20;;;14.00;81.00;;;;;;5140985;27;20413;-72
2021/03/30 08:40:44;;;;;;;8.40;3.80;;;14.20;79.20;;;;;;5138551;27;20409;-72
2021/03/30 08:43:29;;;;;;;10.47;4.60;;;14.40;80.60;;;;;;5137811;27;20412;-72
2021/03/30 08:46:15;;;;;;;12.63;4.20;;;14.60;79.50;;;;;;5135604;27;20439;-72
2021/03/30 08:49:00;;;;;;;7.33;3.90;;;14.70;77.40;;;;;;5140878;27;20895;-72
2021/03/30 08:51:45;;;;;;;6.70;3.90;;;14.90;78.90;;;;;;5140530;27;21265;-72
2021/03/30 08:54:33;;;;;;;7.00;3.47;;;15.10;75.30;;;;;;5143514;27;20467;-72
2021/03/30 08:57:22;;;;;;;11.47;4.13;;;15.30;70.80;;;;;;5136849;27;20409;-72
2021/03/30 09:00:12;;;;;;;11.30;3.30;;;15.50;67.90;;;;;;5141040;27;20429;-72
2021/03/30 09:03:02;;;;;;;7.67;3.63;;;15.70;67.50;;;;;;5140172;27;20428;-72
2021/03/30 09:05:47;;;;;;;8.43;3.63;;;15.90;66.60;;;;;;5141471;27;20417;-72
2021/03/30 09:08:37;;;;;;;6.27;3.70;;;16.10;65.60;;;;;;5135317;27;20452;-72
2021/03/30 09:11:23;;;;;;;7.40;4.50;;;16.30;66.20;;;;;;5146329;27;20945;-72
2021/03/30 09:14:09;;;;;;;7.07;4.03;;;16.50;62.90;;;;;;5136505;27;20455;-72
2021/03/30 09:17:05;;;;;;;15.37;3.43;;;16.70;61.60;;;;;;5138620;27;20487;-72
2021/03/30 09:19:51;;;;;;;7.57;4.30;;;16.80;59.70;;;;;;5140840;27;20447;-72
2021/03/30 09:22:43;;;;;;;9.90;4.20;;;17.00;60.40;;;;;;5141769;27;20509;-73
2021/03/30 09:25:35;;;;;;;5.30;3.20;;;17.10;56.80;;;;;;5139197;27;20446;-72
2021/03/30 09:28:21;;;;;;;15.10;5.23;;;17.30;57.10;;;;;;5137048;27;20471;-72
2021/03/30 09:31:07;;;;;;;7.63;3.83;;;17.50;54.30;;;;;;5147822;27;20437;-72
2021/03/30 09:33:55;;;;;;;5.23;2.93;;;17.70;51.40;;;;;;5141209;27;20551;-72
2021/03/30 09:36:47;;;;;;;7.20;3.30;;;17.80;50.20;;;;;;5141697;27;20473;-72
2021/03/30 09:39:36;;;;;;;7.27;3.90;;;17.90;48.50;;;;;;5145802;27;20938;-73
2021/03/30 09:42:21;;;;;;;5.23;3.50;;;18.10;45.90;;;;;;5136076;27;20459;-72
2021/03/30 09:45:08;;;;;;;9.50;3.03;;;18.20;44.20;;;;;;5141829;27;20414;-72
2021/03/30 09:47:54;;;;;;;6.43;3.40;;;18.30;42.80;;;;;;5139725;27;20461;-73
2021/03/30 09:50:42;;;;;;;7.30;3.37;;;18.40;43.90;;;;;;5143832;27;20911;-73
2021/03/30 09:53:41;;;;;;;7.53;2.97;;;18.60;44.00;;;;;;5145405;27;20972;-72
2021/03/30 09:56:31;;;;;;;7.17;3.47;;;18.70;42.70;;;;;;5140595;27;20444;-73
2021/03/30 09:59:18;;;;;;;6.00;2.90;;;18.90;43.70;;;;;;5140030;27;20442;-72
2021/03/30 10:02:04;;;;;;;7.83;3.10;;;19.10;42.00;;;;;;5147951;27;20482;-72
2021/03/30 10:04:53;;;;;;;8.50;3.60;;;19.20;41.00;;;;;;5143291;27;20444;-72
2021/03/30 10:07:40;;;;;;;4.70;2.60;;;19.40;40.70;;;;;;5142985;27;20889;-72
2021/03/30 10:10:39;;;;;;;9.13;3.23;;;19.50;39.00;;;;;;5148917;27;20409;-72
2021/03/30 10:13:27;;;;;;;6.37;3.53;;;19.70;37.90;;;;;;5138766;27;20467;-72
2021/03/30 10:16:13;;;;;;;6.73;2.57;;;19.80;38.10;;;;;;5137098;27;20423;-73
2021/03/30 10:18:59;;;;;;;7.63;3.10;;;19.90;38.00;;;;;;5143325;27;20451;-73
2021/03/30 10:21:47;;;;;;;6.40;3.60;;;20.00;38.60;;;;;;5141408;27;20458;-73
2021/03/30 10:24:32;;;;;;;7.40;3.50;;;20.20;38.00;;;;;;5144589;27;20948;-72
2021/03/30 10:27:18;;;;;;;13.53;4.43;;;20.20;38.10;;;;;;5148282;27;20430;-73
2021/03/30 10:30:05;;;;;;;6.77;4.50;;;20.30;39.20;;;;;;5139815;27;20454;-73
2021/03/30 10:32:53;;;;;;;7.07;4.47;;;20.30;38.40;;;;;;5143786;27;20470;-72
2021/03/30 10:35:39;;;;;;;6.40;3.90;;;20.40;37.90;;;;;;5141229;27;20414;-73
2021/03/30 10:38:24;;;;;;;8.87;3.83;;;20.50;37.70;;;;;;5148248;27;20832;-72
2021/03/30 10:41:11;;;;;;;6.60;3.87;;;20.60;36.50;;;;;;5143190;27;20980;-73
2021/03/30 10:43:58;;;;;;;6.17;4.60;;;20.60;36.40;;;;;;5140255;27;20469;-71
2021/03/30 10:46:44;;;;;;;13.83;6.47;;;20.70;36.70;;;;;;5136329;27;20802;-71
2021/03/30 10:49:29;;;;;;;15.37;5.50;;;20.80;37.80;;;;;;5140483;27;20425;-71
2021/03/30 10:52:18;;;;;;;25.47;5.40;;;20.80;37.50;;;;;;5138109;27;20514;-72
2021/03/30 10:55:06;;;;;;;22.63;8.00;;;20.90;38.50;;;;;;5141598;27;20537;-72
2021/03/30 10:57:53;;;;;;;11.80;7.50;;;20.90;38.40;;;;;;5136416;27;20446;-70
2021/03/30 11:00:39;;;;;;;74.80;21.43;;;21.00;38.80;;;;;;5147613;27;20519;-71
2021/03/30 11:03:25;;;;;;;16.03;7.93;;;21.10;38.90;;;;;;5137600;27;20503;-71
2021/03/30 11:06:10;;;;;;;54.40;32.13;;;21.30;38.30;;;;;;5147448;27;20441;-71
2021/03/30 11:08:55;;;;;;;18.77;10.87;;;21.40;39.80;;;;;;5144916;27;20439;-71
2021/03/30 11:11:41;;;;;;;10.57;8.57;;;21.60;39.50;;;;;;5148025;27;20471;-71
2021/03/30 11:14:27;;;;;;;10.00;7.37;;;21.60;36.00;;;;;;5145616;27;21257;-71
2021/03/30 11:17:13;;;;;;;9.03;6.30;;;21.50;36.60;;;;;;5136467;27;20446;-71
2021/03/30 11:19:58;;;;;;;11.63;7.53;;;21.50;35.30;;;;;;5143255;27;20472;-72
2021/03/30 11:22:46;;;;;;;12.20;6.77;;;21.60;36.20;;;;;;5138236;27;20450;-72
2021/03/30 11:25:31;;;;;;;15.00;7.40;;;21.70;36.50;;;;;;5138655;27;21492;-73
2021/03/30 11:28:16;;;;;;;14.90;6.60;;;21.80;34.90;;;;;;5145983;27;20452;-74
2021/03/30 11:31:05;;;;;;;8.60;5.83;;;21.90;34.50;;;;;;5147446;27;20502;-71
2021/03/30 11:33:55;;;;;;;9.40;7.03;;;21.90;33.60;;;;;;5139323;27;20422;-71
2021/03/30 11:36:42;;;;;;;11.57;6.63;;;22.00;34.90;;;;;;5138687;27;21157;-71
2021/03/30 11:39:27;;;;;;;11.53;6.23;;;22.10;33.10;;;;;;5137474;27;20473;-72
2021/03/30 11:42:12;;;;;;;9.00;6.30;;;22.20;34.70;;;;;;5142698;27;21015;-73
2021/03/30 11:44:57;;;;;;;12.03;6.33;;;22.40;33.90;;;;;;5139429;27;20520;-71
2021/03/30 11:47:42;;;;;;;13.10;7.23;;;22.50;33.10;;;;;;5143400;27;20495;-72
2021/03/30 11:50:30;;;;;;;14.23;7.80;;;22.60;32.80;;;;;;5142762;27;20938;-72
2021/03/30 11:53:15;;;;;;;15.30;7.63;;;22.70;32.10;;;;;;5143230;27;20462;-72
2021/03/30 11:56:00;;;;;;;11.53;7.13;;;22.80;32.30;;;;;;5135993;27;20448;-72
2021/03/30 11:58:45;;;;;;;11.07;6.90;;;22.70;32.40;;;;;;5148137;27;20539;-72
2021/03/30 12:01:30;;;;;;;8.20;6.23;;;22.50;32.70;;;;;;5144794;27;20496;-72
2021/03/30 12:04:17;;;;;;;12.33;6.80;;;22.50;33.30;;;;;;5144498;27;20981;-71
2021/03/30 12:07:03;;;;;;;10.77;6.87;;;22.60;31.30;;;;;;5142187;27;20779;-71
2021/03/30 12:09:49;;;;;;;14.10;6.30;;;22.60;31.70;;;;;;5143727;27;21044;-71
2021/03/30 12:12:34;;;;;;;11.80;6.53;;;22.80;30.30;;;;;;5141389;27;20462;-72
2021/03/30 12:15:19;;;;;;;10.47;5.97;;;22.90;31.20;;;;;;5147015;27;20970;-72
2021/03/30 12:18:04;;;;;;;14.47;7.03;;;23.00;29.80;;;;;;5134731;27;20474;-72
2021/03/30 12:20:49;;;;;;;12.10;6.50;;;23.00;30.80;;;;;;5144320;27;20496;-73
2021/03/30 12:23:35;;;;;;;14.47;6.10;;;22.90;29.60;;;;;;5144526;27;20446;-72
2021/03/30 12:26:20;;;;;;;12.73;6.40;;;22.90;30.60;;;;;;5144747;27;20994;-73
2021/03/30 12:29:05;;;;;;;9.00;5.80;;;22.90;29.20;;;;;;5141453;27;20472;-73
2021/03/30 12:31:51;;;;;;;12.10;4.90;;;23.10;29.90;;;;;;5147119;27;20516;-72
2021/03/30 12:34:36;;;;;;;8.90;4.73;;;23.40;30.10;;;;;;5143388;27;20443;-72
2021/03/30 12:37:21;;;;;;;7.97;4.57;;;23.60;29.30;;;;;;5140884;27;20485;-72
2021/03/30 12:40:09;;;;;;;9.53;5.20;;;23.70;28.30;;;;;;5141160;27;20444;-72
2021/03/30 12:42:53;;;;;;;13.40;5.57;;;24.00;29.70;;;;;;5139854;27;20446;-72
2021/03/30 12:45:39;;;;;;;12.80;6.80;;;24.10;28.20;;;;;;5142513;27;20440;-72
2021/03/30 12:48:24;;;;;;;13.20;5.93;;;24.10;28.50;;;;;;5141178;27;20459;-73
2021/03/30 12:51:09;;;;;;;9.63;6.00;;;24.30;29.00;;;;;;5134706;27;20464;-72
2021/03/30 12:53:57;;;;;;;7.40;5.40;;;24.50;28.80;;;;;;5141463;27;20497;-74
2021/03/30 12:56:45;;;;;;;9.87;5.30;;;24.80;28.50;;;;;;5142775;27;20451;-72
2021/03/30 12:59:30;;;;;;;9.40;6.17;;;24.70;28.80;;;;;;5138476;27;21304;-71
2021/03/30 13:02:15;;;;;;;15.50;5.90;;;25.00;29.00;;;;;;5137203;27;20478;-73
2021/03/30 13:05:00;;;;;;;10.90;6.43;;;25.00;27.80;;;;;;5141334;27;20421;-72
2021/03/30 13:07:45;;;;;;;14.37;5.90;;;25.00;27.70;;;;;;5142299;27;20421;-71
2021/03/30 13:10:30;;;;;;;9.03;6.80;;;25.30;28.50;;;;;;5141191;27;20554;-72
2021/03/30 13:13:16;;;;;;;8.63;5.90;;;25.30;27.30;;;;;;5138284;27;20765;-74
2021/03/30 13:16:01;;;;;;;16.30;5.20;;;25.30;27.40;;;;;;5145905;27;20442;-72
2021/03/30 13:18:46;;;;;;;13.57;6.00;;;25.50;27.30;;;;;;5145579;27;20445;-72
2021/03/30 13:21:32;;;;;;;13.90;6.60;;;25.60;27.90;;;;;;5141946;27;20482;-72
2021/03/30 13:24:17;;;;;;;9.47;5.73;;;25.70;28.00;;;;;;5144128;27;20453;-72
2021/03/30 13:27:03;;;;;;;13.70;7.17;;;26.10;27.90;;;;;;5138383;27;20492;-72
2021/03/30 13:29:49;;;;;;;8.60;5.47;;;26.00;27.70;;;;;;5150274;27;20563;-72
2021/03/30 13:32:34;;;;;;;14.60;8.80;;;26.20;27.10;;;;;;5141498;27;20813;-72
2021/03/30 13:35:20;;;;;;;9.77;6.00;;;26.10;26.00;;;;;;5149143;27;20436;-72
2021/03/30 13:38:05;;;;;;;7.40;5.50;;;26.10;26.50;;;;;;5146504;27;20442;-74
2021/03/30 13:40:50;;;;;;;11.70;5.70;;;25.70;26.20;;;;;;5138328;27;20518;-72
2021/03/30 13:43:35;;;;;;;9.30;5.70;;;25.70;27.00;;;;;;5150719;27;20480;-73
2021/03/30 13:46:21;;;;;;;8.00;5.80;;;25.90;27.20;;;;;;5140745;27;20438;-73
2021/03/30 13:49:06;;;;;;;22.17;6.43;;;25.90;27.60;;;;;;5144774;27;20510;-74
2021/03/30 13:51:51;;;;;;;8.10;5.37;;;25.80;27.10;;;;;;5151302;27;20460;-73
2021/03/30 13:54:37;;;;;;;9.60;5.90;;;25.90;26.30;;;;;;5150505;27;20500;-72
2021/03/30 13:57:22;;;;;;;9.57;5.70;;;25.90;25.40;;;;;;5144284;27;20447;-73
2021/03/30 14:00:08;;;;;;;16.80;5.60;;;26.10;26.20;;;;;;5149186;27;20431;-73
2021/03/30 14:02:54;;;;;;;10.00;5.10;;;26.20;26.20;;;;;;5142253;27;20512;-72
2021/03/30 14:05:39;;;;;;;18.00;5.93;;;26.30;26.20;;;;;;5144259;27;20444;-72
2021/03/30 14:08:25;;;;;;;12.80;5.53;;;26.50;25.70;;;;;;5142941;27;20438;-71
2021/03/30 14:11:10;;;;;;;7.03;5.30;;;26.40;25.40;;;;;;5146700;27;21073;-71
2021/03/30 14:13:58;;;;;;;8.63;4.70;;;26.50;25.60;;;;;;5142508;27;20442;-74
2021/03/30 14:16:54;;;;;;;9.87;4.70;;;26.60;26.80;;;;;;5146887;27;20448;-74
2021/03/30 14:19:41;;;;;;;9.47;5.10;;;26.60;26.70;;;;;;5139907;27;20504;-74
2021/03/30 14:22:32;;;;;;;8.97;5.73;;;26.80;27.20;;;;;;5146741;27;20526;-74
2021/03/30 14:37:46;;;;;;;5.40;3.80;;;27.30;25.70;;;;;;5097704;27;20612;-72
2021/03/30 14:40:32;;;;;;;8.50;5.20;;;27.20;26.20;;;;;;5101222;28;20473;-72
2021/03/30 14:43:21;;;;;;;15.63;5.90;;;27.30;26.10;;;;;;5084865;28;20511;-72
2021/03/30 14:52:23;;;;;;;8.47;5.50;;;27.00;26.20;;;;;;5075162;28;20491;-73